http://www.privatejetfinder.com

 

Airport Name : South Bend Rgnl

Other Name : South Bend Rgnl

ICAO : KSBN

IATA : SBN

FAA : SBN

Latitude : 41.708661

Longitude : -86.31725

Country : United States

Local Date and Time : 21 Jan 2020 22:19

 

TAF (Terminal Aerodrome Forecast)

KSBN 212320Z 2200/2224 20006KT P6SM SCT250 FM221600 20014G20KT P6SM BKN250

 

METAR (METeorological Aerodrome Report)

KSBN 220254Z 19008KT 10SM CLR M04/M09 A3043 RMK AO2 SLP316 T10441089 56018

KSBN 220154Z 18005KT 10SM CLR M05/M09 A3043 RMK AO2 SLP319 T10501094

KSBN 220054Z 19005KT 10SM CLR M06/M09 A3047 RMK AO2 SLP331 T10561094

KSBN 212354Z 19005KT 10SM CLR M05/M09 A3048 RMK AO2 SLP335 T10501089 11011 21050 56012

To Charter a Jet Click here.